sensor_id;sensor_type;location;lat;lon;timestamp;P1;durP1;ratioP1;P2;durP2;ratioP2
8694;SDS011;65580;49.446;6.854;2023-07-29T00:01:44;3.47;;;1.35;;
8694;SDS011;65580;49.446;6.854;2023-07-29T00:05:47;3.65;;;1.70;;
8694;SDS011;65580;49.446;6.854;2023-07-29T00:09:50;4.30;;;2.17;;
8694;SDS011;65580;49.446;6.854;2023-07-29T00:13:54;3.75;;;1.80;;
8694;SDS011;65580;49.446;6.854;2023-07-29T00:17:57;1.77;;;1.63;;
8694;SDS011;65580;49.446;6.854;2023-07-29T00:22:00;10.50;;;3.22;;
8694;SDS011;65580;49.446;6.854;2023-07-29T00:26:03;3.30;;;2.17;;
8694;SDS011;65580;49.446;6.854;2023-07-29T00:30:07;6.00;;;2.08;;
8694;SDS011;65580;49.446;6.854;2023-07-29T00:34:10;7.72;;;2.35;;
8694;SDS011;65580;49.446;6.854;2023-07-29T00:38:18;2.97;;;1.90;;
8694;SDS011;65580;49.446;6.854;2023-07-29T00:42:21;2.03;;;1.83;;
8694;SDS011;65580;49.446;6.854;2023-07-29T00:46:25;5.03;;;2.17;;
8694;SDS011;65580;49.446;6.854;2023-07-29T00:50:30;3.50;;;1.58;;
8694;SDS011;65580;49.446;6.854;2023-07-29T00:54:33;7.15;;;3.40;;
8694;SDS011;65580;49.446;6.854;2023-07-29T00:58:36;4.15;;;1.90;;
8694;SDS011;65580;49.446;6.854;2023-07-29T01:02:40;2.40;;;1.65;;
8694;SDS011;65580;49.446;6.854;2023-07-29T01:06:46;2.97;;;1.65;;
8694;SDS011;65580;49.446;6.854;2023-07-29T01:10:55;3.47;;;1.80;;
8694;SDS011;65580;49.446;6.854;2023-07-29T01:15:04;2.42;;;1.50;;
8694;SDS011;65580;49.446;6.854;2023-07-29T01:19:23;2.85;;;2.10;;
8694;SDS011;65580;49.446;6.854;2023-07-29T01:23:36;3.28;;;1.52;;
8694;SDS011;65580;49.446;6.854;2023-07-29T01:27:39;2.22;;;1.42;;
8694;SDS011;65580;49.446;6.854;2023-07-29T01:31:42;2.97;;;1.42;;
8694;SDS011;65580;49.446;6.854;2023-07-29T01:35:46;6.22;;;1.85;;
8694;SDS011;65580;49.446;6.854;2023-07-29T01:39:52;4.72;;;1.95;;
8694;SDS011;65580;49.446;6.854;2023-07-29T01:43:56;6.25;;;1.83;;
8694;SDS011;65580;49.446;6.854;2023-07-29T01:52:02;4.90;;;2.00;;
8694;SDS011;65580;49.446;6.854;2023-07-29T01:56:06;3.83;;;1.50;;
8694;SDS011;65580;49.446;6.854;2023-07-29T02:00:10;2.80;;;1.75;;
8694;SDS011;65580;49.446;6.854;2023-07-29T02:04:13;3.15;;;1.60;;
8694;SDS011;65580;49.446;6.854;2023-07-29T02:08:16;6.03;;;1.67;;
8694;SDS011;65580;49.446;6.854;2023-07-29T02:12:20;4.10;;;1.48;;
8694;SDS011;65580;49.446;6.854;2023-07-29T02:16:22;10.48;;;3.53;;
8694;SDS011;65580;49.446;6.854;2023-07-29T02:24:29;1.50;;;1.40;;
8694;SDS011;65580;49.446;6.854;2023-07-29T02:28:33;3.08;;;1.67;;
8694;SDS011;65580;49.446;6.854;2023-07-29T02:32:36;6.47;;;1.80;;
8694;SDS011;65580;49.446;6.854;2023-07-29T02:36:38;3.72;;;1.52;;
8694;SDS011;65580;49.446;6.854;2023-07-29T02:40:41;5.05;;;1.63;;
8694;SDS011;65580;49.446;6.854;2023-07-29T02:44:45;3.78;;;1.05;;
8694;SDS011;65580;49.446;6.854;2023-07-29T02:48:47;2.58;;;1.60;;
8694;SDS011;65580;49.446;6.854;2023-07-29T02:52:50;1.13;;;1.02;;
8694;SDS011;65580;49.446;6.854;2023-07-29T02:56:53;2.05;;;1.58;;
8694;SDS011;65580;49.446;6.854;2023-07-29T03:01:01;2.53;;;2.00;;
8694;SDS011;65580;49.446;6.854;2023-07-29T03:05:04;2.20;;;1.60;;
8694;SDS011;65580;49.446;6.854;2023-07-29T03:09:07;4.88;;;1.10;;
8694;SDS011;65580;49.446;6.854;2023-07-29T03:13:10;3.33;;;1.42;;
8694;SDS011;65580;49.446;6.854;2023-07-29T03:17:14;3.47;;;1.67;;
8694;SDS011;65580;49.446;6.854;2023-07-29T03:21:17;2.60;;;1.42;;
8694;SDS011;65580;49.446;6.854;2023-07-29T03:25:20;3.15;;;1.88;;
8694;SDS011;65580;49.446;6.854;2023-07-29T03:33:27;5.95;;;2.20;;
8694;SDS011;65580;49.446;6.854;2023-07-29T03:37:30;3.53;;;1.83;;
8694;SDS011;65580;49.446;6.854;2023-07-29T03:41:33;10.52;;;2.45;;
8694;SDS011;65580;49.446;6.854;2023-07-29T03:45:35;4.20;;;1.60;;
8694;SDS011;65580;49.446;6.854;2023-07-29T03:49:41;8.32;;;1.70;;
8694;SDS011;65580;49.446;6.854;2023-07-29T03:53:43;5.50;;;1.70;;
8694;SDS011;65580;49.446;6.854;2023-07-29T03:57:46;3.17;;;1.90;;
8694;SDS011;65580;49.446;6.854;2023-07-29T04:01:49;3.58;;;2.22;;
8694;SDS011;65580;49.446;6.854;2023-07-29T04:09:56;4.03;;;2.00;;
8694;SDS011;65580;49.446;6.854;2023-07-29T04:13:59;2.10;;;1.88;;
8694;SDS011;65580;49.446;6.854;2023-07-29T04:18:01;2.50;;;1.73;;
8694;SDS011;65580;49.446;6.854;2023-07-29T04:22:06;6.18;;;1.60;;
8694;SDS011;65580;49.446;6.854;2023-07-29T04:26:08;3.90;;;1.65;;
8694;SDS011;65580;49.446;6.854;2023-07-29T04:30:11;7.50;;;2.45;;
8694;SDS011;65580;49.446;6.854;2023-07-29T04:34:14;11.50;;;3.05;;
8694;SDS011;65580;49.446;6.854;2023-07-29T04:38:18;3.58;;;2.53;;
8694;SDS011;65580;49.446;6.854;2023-07-29T04:42:21;9.90;;;1.73;;
8694;SDS011;65580;49.446;6.854;2023-07-29T04:46:24;4.35;;;2.13;;
8694;SDS011;65580;49.446;6.854;2023-07-29T04:50:27;7.05;;;3.45;;
8694;SDS011;65580;49.446;6.854;2023-07-29T04:54:31;12.85;;;3.92;;
8694;SDS011;65580;49.446;6.854;2023-07-29T04:58:34;7.15;;;2.80;;
8694;SDS011;65580;49.446;6.854;2023-07-29T05:02:36;7.30;;;3.60;;
8694;SDS011;65580;49.446;6.854;2023-07-29T05:06:39;7.88;;;2.95;;
8694;SDS011;65580;49.446;6.854;2023-07-29T05:10:43;10.32;;;2.60;;
8694;SDS011;65580;49.446;6.854;2023-07-29T05:14:46;5.32;;;3.13;;
8694;SDS011;65580;49.446;6.854;2023-07-29T05:18:49;6.82;;;3.00;;
8694;SDS011;65580;49.446;6.854;2023-07-29T05:22:51;5.93;;;2.60;;
8694;SDS011;65580;49.446;6.854;2023-07-29T05:26:55;5.60;;;2.45;;
8694;SDS011;65580;49.446;6.854;2023-07-29T05:31:00;1.83;;;1.10;;
8694;SDS011;65580;49.446;6.854;2023-07-29T05:35:03;4.03;;;1.70;;
8694;SDS011;65580;49.446;6.854;2023-07-29T05:39:06;7.22;;;1.60;;
8694;SDS011;65580;49.446;6.854;2023-07-29T05:43:10;4.88;;;1.30;;
8694;SDS011;65580;49.446;6.854;2023-07-29T05:47:13;8.35;;;1.48;;
8694;SDS011;65580;49.446;6.854;2023-07-29T05:51:16;6.43;;;1.52;;
8694;SDS011;65580;49.446;6.854;2023-07-29T05:55:19;5.93;;;2.47;;
8694;SDS011;65580;49.446;6.854;2023-07-29T05:59:23;10.43;;;3.10;;
8694;SDS011;65580;49.446;6.854;2023-07-29T06:03:26;5.30;;;2.15;;
8694;SDS011;65580;49.446;6.854;2023-07-29T06:07:29;2.95;;;1.70;;
8694;SDS011;65580;49.446;6.854;2023-07-29T06:11:34;3.33;;;1.70;;
8694;SDS011;65580;49.446;6.854;2023-07-29T06:15:38;5.88;;;1.38;;
8694;SDS011;65580;49.446;6.854;2023-07-29T06:19:41;2.55;;;1.23;;
8694;SDS011;65580;49.446;6.854;2023-07-29T06:23:44;3.45;;;2.03;;
8694;SDS011;65580;49.446;6.854;2023-07-29T06:27:46;3.80;;;1.60;;
8694;SDS011;65580;49.446;6.854;2023-07-29T06:31:50;2.40;;;1.70;;
8694;SDS011;65580;49.446;6.854;2023-07-29T06:35:53;3.10;;;1.83;;
8694;SDS011;65580;49.446;6.854;2023-07-29T06:39:56;6.13;;;1.58;;
8694;SDS011;65580;49.446;6.854;2023-07-29T06:43:59;4.65;;;1.60;;
8694;SDS011;65580;49.446;6.854;2023-07-29T06:48:03;4.90;;;2.10;;
8694;SDS011;65580;49.446;6.854;2023-07-29T06:52:06;4.50;;;1.55;;
8694;SDS011;65580;49.446;6.854;2023-07-29T06:56:09;2.33;;;1.50;;
8694;SDS011;65580;49.446;6.854;2023-07-29T07:00:12;5.13;;;2.10;;
8694;SDS011;65580;49.446;6.854;2023-07-29T07:04:16;5.70;;;1.60;;
8694;SDS011;65580;49.446;6.854;2023-07-29T07:08:19;3.10;;;1.60;;
8694;SDS011;65580;49.446;6.854;2023-07-29T07:12:22;6.20;;;2.20;;
8694;SDS011;65580;49.446;6.854;2023-07-29T07:16:25;1.70;;;1.30;;
8694;SDS011;65580;49.446;6.854;2023-07-29T07:20:32;2.67;;;1.85;;
8694;SDS011;65580;49.446;6.854;2023-07-29T07:24:34;2.50;;;1.42;;
8694;SDS011;65580;49.446;6.854;2023-07-29T07:28:37;2.83;;;1.60;;
8694;SDS011;65580;49.446;6.854;2023-07-29T07:32:40;3.03;;;1.50;;
8694;SDS011;65580;49.446;6.854;2023-07-29T07:36:44;3.03;;;1.60;;
8694;SDS011;65580;49.446;6.854;2023-07-29T07:40:52;5.18;;;1.75;;
8694;SDS011;65580;49.446;6.854;2023-07-29T07:48:59;4.28;;;1.63;;
8694;SDS011;65580;49.446;6.854;2023-07-29T07:53:03;4.63;;;1.90;;
8694;SDS011;65580;49.446;6.854;2023-07-29T07:57:06;2.13;;;1.52;;
8694;SDS011;65580;49.446;6.854;2023-07-29T08:05:12;3.20;;;1.52;;
8694;SDS011;65580;49.446;6.854;2023-07-29T08:09:16;2.05;;;1.58;;
8694;SDS011;65580;49.446;6.854;2023-07-29T08:13:19;3.17;;;1.58;;
8694;SDS011;65580;49.446;6.854;2023-07-29T08:17:22;2.35;;;1.60;;
8694;SDS011;65580;49.446;6.854;2023-07-29T08:25:30;3.35;;;1.42;;
8694;SDS011;65580;49.446;6.854;2023-07-29T08:29:32;6.03;;;1.70;;
8694;SDS011;65580;49.446;6.854;2023-07-29T08:33:35;2.50;;;1.70;;
8694;SDS011;65580;49.446;6.854;2023-07-29T08:37:38;2.30;;;1.45;;
8694;SDS011;65580;49.446;6.854;2023-07-29T08:41:48;3.97;;;1.45;;
8694;SDS011;65580;49.446;6.854;2023-07-29T08:45:53;1.88;;;1.33;;
8694;SDS011;65580;49.446;6.854;2023-07-29T08:49:56;4.82;;;1.40;;
8694;SDS011;65580;49.446;6.854;2023-07-29T08:54:00;3.00;;;1.67;;
8694;SDS011;65580;49.446;6.854;2023-07-29T08:58:05;1.67;;;1.48;;
8694;SDS011;65580;49.446;6.854;2023-07-29T09:02:08;4.43;;;1.40;;
8694;SDS011;65580;49.446;6.854;2023-07-29T09:06:11;1.83;;;1.40;;
8694;SDS011;65580;49.446;6.854;2023-07-29T09:10:14;3.20;;;1.20;;
8694;SDS011;65580;49.446;6.854;2023-07-29T09:14:18;1.27;;;1.10;;
8694;SDS011;65580;49.446;6.854;2023-07-29T09:18:22;1.65;;;1.20;;
8694;SDS011;65580;49.446;6.854;2023-07-29T09:22:25;3.42;;;1.00;;
8694;SDS011;65580;49.446;6.854;2023-07-29T09:26:29;3.40;;;0.90;;
8694;SDS011;65580;49.446;6.854;2023-07-29T09:30:34;0.82;;;0.80;;
8694;SDS011;65580;49.446;6.854;2023-07-29T09:34:37;1.67;;;0.93;;
8694;SDS011;65580;49.446;6.854;2023-07-29T09:38:44;2.03;;;0.80;;
8694;SDS011;65580;49.446;6.854;2023-07-29T09:42:47;2.42;;;1.00;;
8694;SDS011;65580;49.446;6.854;2023-07-29T09:46:53;3.13;;;1.08;;
8694;SDS011;65580;49.446;6.854;2023-07-29T09:50:57;1.08;;;0.90;;
8694;SDS011;65580;49.446;6.854;2023-07-29T09:54:59;1.48;;;0.90;;
8694;SDS011;65580;49.446;6.854;2023-07-29T09:59:04;0.95;;;0.90;;
8694;SDS011;65580;49.446;6.854;2023-07-29T10:03:08;1.05;;;0.80;;
8694;SDS011;65580;49.446;6.854;2023-07-29T10:07:11;0.90;;;0.90;;
8694;SDS011;65580;49.446;6.854;2023-07-29T10:11:14;0.82;;;0.80;;
8694;SDS011;65580;49.446;6.854;2023-07-29T10:15:17;1.52;;;1.02;;
8694;SDS011;65580;49.446;6.854;2023-07-29T10:19:21;1.67;;;0.98;;
8694;SDS011;65580;49.446;6.854;2023-07-29T10:23:24;3.03;;;0.90;;
8694;SDS011;65580;49.446;6.854;2023-07-29T10:27:29;1.50;;;0.82;;
8694;SDS011;65580;49.446;6.854;2023-07-29T10:31:32;2.72;;;0.80;;
8694;SDS011;65580;49.446;6.854;2023-07-29T10:35:36;3.45;;;1.38;;
8694;SDS011;65580;49.446;6.854;2023-07-29T10:39:51;2.60;;;0.70;;
8694;SDS011;65580;49.446;6.854;2023-07-29T10:43:55;2.50;;;1.00;;
8694;SDS011;65580;49.446;6.854;2023-07-29T10:47:57;3.17;;;1.05;;
8694;SDS011;65580;49.446;6.854;2023-07-29T10:52:02;0.85;;;0.80;;
8694;SDS011;65580;49.446;6.854;2023-07-29T10:56:05;1.30;;;1.00;;
8694;SDS011;65580;49.446;6.854;2023-07-29T11:00:08;1.58;;;0.77;;
8694;SDS011;65580;49.446;6.854;2023-07-29T11:04:25;3.33;;;1.00;;
8694;SDS011;65580;49.446;6.854;2023-07-29T11:08:30;1.17;;;0.90;;
8694;SDS011;65580;49.446;6.854;2023-07-29T11:12:36;1.67;;;1.00;;
8694;SDS011;65580;49.446;6.854;2023-07-29T11:16:39;0.85;;;0.85;;
8694;SDS011;65580;49.446;6.854;2023-07-29T11:20:43;1.60;;;1.05;;
8694;SDS011;65580;49.446;6.854;2023-07-29T11:24:48;4.25;;;1.23;;
8694;SDS011;65580;49.446;6.854;2023-07-29T11:28:51;1.05;;;0.90;;
8694;SDS011;65580;49.446;6.854;2023-07-29T11:32:55;1.77;;;0.80;;
8694;SDS011;65580;49.446;6.854;2023-07-29T11:36:58;3.72;;;1.00;;
8694;SDS011;65580;49.446;6.854;2023-07-29T11:41:02;3.70;;;1.00;;
8694;SDS011;65580;49.446;6.854;2023-07-29T11:45:06;2.65;;;1.20;;
8694;SDS011;65580;49.446;6.854;2023-07-29T11:49:09;2.33;;;1.10;;
8694;SDS011;65580;49.446;6.854;2023-07-29T11:53:12;1.67;;;1.02;;
8694;SDS011;65580;49.446;6.854;2023-07-29T11:57:19;1.77;;;1.10;;
8694;SDS011;65580;49.446;6.854;2023-07-29T12:01:22;1.95;;;1.02;;
8694;SDS011;65580;49.446;6.854;2023-07-29T12:05:25;2.83;;;0.85;;
8694;SDS011;65580;49.446;6.854;2023-07-29T12:09:28;3.45;;;1.00;;
8694;SDS011;65580;49.446;6.854;2023-07-29T12:13:33;1.13;;;0.93;;
8694;SDS011;65580;49.446;6.854;2023-07-29T12:17:39;1.10;;;1.00;;
8694;SDS011;65580;49.446;6.854;2023-07-29T12:21:43;2.17;;;1.30;;
8694;SDS011;65580;49.446;6.854;2023-07-29T12:25:46;1.33;;;0.95;;
8694;SDS011;65580;49.446;6.854;2023-07-29T12:29:51;0.95;;;0.85;;
8694;SDS011;65580;49.446;6.854;2023-07-29T12:33:55;1.80;;;1.02;;
8694;SDS011;65580;49.446;6.854;2023-07-29T12:37:58;6.50;;;1.30;;
8694;SDS011;65580;49.446;6.854;2023-07-29T12:42:02;2.13;;;1.00;;
8694;SDS011;65580;49.446;6.854;2023-07-29T12:46:07;1.67;;;1.02;;
8694;SDS011;65580;49.446;6.854;2023-07-29T12:50:10;1.95;;;1.13;;
8694;SDS011;65580;49.446;6.854;2023-07-29T12:54:13;1.58;;;1.08;;
8694;SDS011;65580;49.446;6.854;2023-07-29T12:58:15;0.80;;;0.80;;
8694;SDS011;65580;49.446;6.854;2023-07-29T13:02:20;2.97;;;1.20;;
8694;SDS011;65580;49.446;6.854;2023-07-29T13:06:22;1.85;;;1.30;;
8694;SDS011;65580;49.446;6.854;2023-07-29T13:10:25;1.08;;;0.90;;
8694;SDS011;65580;49.446;6.854;2023-07-29T13:14:28;1.77;;;1.20;;
8694;SDS011;65580;49.446;6.854;2023-07-29T13:18:33;1.85;;;1.20;;
8694;SDS011;65580;49.446;6.854;2023-07-29T13:22:36;3.20;;;1.20;;
8694;SDS011;65580;49.446;6.854;2023-07-29T13:26:39;1.73;;;1.15;;
8694;SDS011;65580;49.446;6.854;2023-07-29T13:30:41;1.77;;;1.17;;
8694;SDS011;65580;49.446;6.854;2023-07-29T13:34:46;1.30;;;1.20;;
8694;SDS011;65580;49.446;6.854;2023-07-29T13:38:49;2.67;;;1.30;;
8694;SDS011;65580;49.446;6.854;2023-07-29T13:42:52;1.88;;;1.10;;
8694;SDS011;65580;49.446;6.854;2023-07-29T13:46:56;1.80;;;1.20;;
8694;SDS011;65580;49.446;6.854;2023-07-29T13:51:00;3.28;;;1.02;;
8694;SDS011;65580;49.446;6.854;2023-07-29T13:55:10;5.43;;;1.20;;
8694;SDS011;65580;49.446;6.854;2023-07-29T13:59:13;2.20;;;1.00;;
8694;SDS011;65580;49.446;6.854;2023-07-29T14:03:16;1.88;;;1.10;;
8694;SDS011;65580;49.446;6.854;2023-07-29T14:07:20;2.13;;;0.98;;
8694;SDS011;65580;49.446;6.854;2023-07-29T14:11:23;1.33;;;1.17;;
8694;SDS011;65580;49.446;6.854;2023-07-29T14:15:27;1.73;;;1.20;;
8694;SDS011;65580;49.446;6.854;2023-07-29T14:19:30;1.60;;;1.20;;
8694;SDS011;65580;49.446;6.854;2023-07-29T14:23:35;1.70;;;1.30;;
8694;SDS011;65580;49.446;6.854;2023-07-29T14:27:38;3.97;;;1.05;;
8694;SDS011;65580;49.446;6.854;2023-07-29T14:31:40;2.40;;;1.20;;
8694;SDS011;65580;49.446;6.854;2023-07-29T14:35:43;2.03;;;1.38;;
8694;SDS011;65580;49.446;6.854;2023-07-29T14:39:47;1.67;;;1.10;;
8694;SDS011;65580;49.446;6.854;2023-07-29T14:43:51;3.65;;;1.50;;
8694;SDS011;65580;49.446;6.854;2023-07-29T14:47:54;4.55;;;1.00;;
8694;SDS011;65580;49.446;6.854;2023-07-29T14:51:57;1.90;;;1.30;;
8694;SDS011;65580;49.446;6.854;2023-07-29T14:56:01;1.40;;;1.30;;
8694;SDS011;65580;49.446;6.854;2023-07-29T15:00:04;1.20;;;1.10;;
8694;SDS011;65580;49.446;6.854;2023-07-29T15:04:08;2.85;;;1.10;;
8694;SDS011;65580;49.446;6.854;2023-07-29T15:08:11;2.55;;;1.25;;
8694;SDS011;65580;49.446;6.854;2023-07-29T15:12:15;3.75;;;1.50;;
8694;SDS011;65580;49.446;6.854;2023-07-29T15:16:18;4.03;;;1.20;;
8694;SDS011;65580;49.446;6.854;2023-07-29T15:20:21;4.50;;;1.10;;
8694;SDS011;65580;49.446;6.854;2023-07-29T15:24:24;1.70;;;1.30;;
8694;SDS011;65580;49.446;6.854;2023-07-29T15:28:30;1.17;;;1.00;;
8694;SDS011;65580;49.446;6.854;2023-07-29T15:32:33;1.88;;;1.02;;
8694;SDS011;65580;49.446;6.854;2023-07-29T15:36:36;2.22;;;1.27;;
8694;SDS011;65580;49.446;6.854;2023-07-29T15:40:39;1.17;;;1.00;;
8694;SDS011;65580;49.446;6.854;2023-07-29T15:44:43;1.75;;;1.10;;
8694;SDS011;65580;49.446;6.854;2023-07-29T15:48:46;1.73;;;1.20;;
8694;SDS011;65580;49.446;6.854;2023-07-29T15:52:50;2.10;;;1.35;;
8694;SDS011;65580;49.446;6.854;2023-07-29T15:56:52;1.20;;;1.10;;
8694;SDS011;65580;49.446;6.854;2023-07-29T16:00:57;3.92;;;1.00;;
8694;SDS011;65580;49.446;6.854;2023-07-29T16:05:00;1.45;;;1.10;;
8694;SDS011;65580;49.446;6.854;2023-07-29T16:09:03;2.95;;;1.88;;
8694;SDS011;65580;49.446;6.854;2023-07-29T16:13:07;4.57;;;1.50;;
8694;SDS011;65580;49.446;6.854;2023-07-29T16:17:11;3.60;;;1.35;;
8694;SDS011;65580;49.446;6.854;2023-07-29T16:21:14;2.88;;;1.30;;
8694;SDS011;65580;49.446;6.854;2023-07-29T16:25:17;3.13;;;2.13;;
8694;SDS011;65580;49.446;6.854;2023-07-29T16:29:20;1.67;;;1.33;;
8694;SDS011;65580;49.446;6.854;2023-07-29T16:33:25;4.65;;;1.70;;
8694;SDS011;65580;49.446;6.854;2023-07-29T16:37:27;2.83;;;1.45;;
8694;SDS011;65580;49.446;6.854;2023-07-29T16:41:30;4.07;;;2.28;;
8694;SDS011;65580;49.446;6.854;2023-07-29T16:45:53;2.63;;;1.48;;
8694;SDS011;65580;49.446;6.854;2023-07-29T16:54:10;3.55;;;1.88;;
8694;SDS011;65580;49.446;6.854;2023-07-29T16:58:12;2.67;;;1.60;;
8694;SDS011;65580;49.446;6.854;2023-07-29T17:06:19;2.03;;;1.40;;
8694;SDS011;65580;49.446;6.854;2023-07-29T17:10:22;1.20;;;1.10;;
8694;SDS011;65580;49.446;6.854;2023-07-29T17:14:25;2.28;;;1.40;;
8694;SDS011;65580;49.446;6.854;2023-07-29T17:18:27;1.85;;;1.50;;
8694;SDS011;65580;49.446;6.854;2023-07-29T17:26:36;5.10;;;1.90;;
8694;SDS011;65580;49.446;6.854;2023-07-29T17:30:39;1.75;;;1.30;;
8694;SDS011;65580;49.446;6.854;2023-07-29T17:38:46;2.00;;;1.40;;
8694;SDS011;65580;49.446;6.854;2023-07-29T17:42:49;2.80;;;1.20;;
8694;SDS011;65580;49.446;6.854;2023-07-29T17:46:52;2.45;;;1.40;;
8694;SDS011;65580;49.446;6.854;2023-07-29T17:50:55;2.17;;;1.45;;
8694;SDS011;65580;49.446;6.854;2023-07-29T17:54:59;4.28;;;1.40;;
8694;SDS011;65580;49.446;6.854;2023-07-29T17:59:02;1.30;;;1.20;;
8694;SDS011;65580;49.446;6.854;2023-07-29T18:03:05;1.90;;;1.50;;
8694;SDS011;65580;49.446;6.854;2023-07-29T18:07:08;2.33;;;1.60;;
8694;SDS011;65580;49.446;6.854;2023-07-29T18:11:12;1.80;;;1.40;;
8694;SDS011;65580;49.446;6.854;2023-07-29T18:15:17;1.80;;;1.40;;
8694;SDS011;65580;49.446;6.854;2023-07-29T18:19:20;1.63;;;1.17;;
8694;SDS011;65580;49.446;6.854;2023-07-29T18:23:23;1.70;;;1.40;;
8694;SDS011;65580;49.446;6.854;2023-07-29T18:27:28;1.33;;;1.20;;
8694;SDS011;65580;49.446;6.854;2023-07-29T18:31:31;1.40;;;1.30;;
8694;SDS011;65580;49.446;6.854;2023-07-29T18:35:37;1.95;;;1.50;;
8694;SDS011;65580;49.446;6.854;2023-07-29T18:39:42;3.60;;;1.70;;
8694;SDS011;65580;49.446;6.854;2023-07-29T18:43:47;2.80;;;1.50;;
8694;SDS011;65580;49.446;6.854;2023-07-29T18:47:49;3.05;;;1.50;;
8694;SDS011;65580;49.446;6.854;2023-07-29T18:51:52;2.65;;;1.60;;
8694;SDS011;65580;49.446;6.854;2023-07-29T19:00:00;3.15;;;1.30;;
8694;SDS011;65580;49.446;6.854;2023-07-29T19:04:04;4.65;;;1.50;;
8694;SDS011;65580;49.446;6.854;2023-07-29T19:08:07;4.82;;;1.40;;
8694;SDS011;65580;49.446;6.854;2023-07-29T19:12:11;5.65;;;1.50;;
8694;SDS011;65580;49.446;6.854;2023-07-29T19:16:16;3.88;;;1.50;;
8694;SDS011;65580;49.446;6.854;2023-07-29T19:20:33;3.17;;;1.40;;
8694;SDS011;65580;49.446;6.854;2023-07-29T19:24:36;4.28;;;1.90;;
8694;SDS011;65580;49.446;6.854;2023-07-29T19:28:39;4.25;;;1.25;;
8694;SDS011;65580;49.446;6.854;2023-07-29T19:32:43;1.70;;;1.50;;
8694;SDS011;65580;49.446;6.854;2023-07-29T19:36:46;2.90;;;1.50;;
8694;SDS011;65580;49.446;6.854;2023-07-29T19:40:49;1.80;;;1.60;;
8694;SDS011;65580;49.446;6.854;2023-07-29T19:48:55;4.22;;;1.70;;
8694;SDS011;65580;49.446;6.854;2023-07-29T19:52:58;3.63;;;1.60;;
8694;SDS011;65580;49.446;6.854;2023-07-29T19:57:01;3.65;;;1.60;;
8694;SDS011;65580;49.446;6.854;2023-07-29T20:01:04;3.90;;;1.50;;
8694;SDS011;65580;49.446;6.854;2023-07-29T20:05:08;4.00;;;1.40;;
8694;SDS011;65580;49.446;6.854;2023-07-29T20:09:12;1.90;;;1.65;;
8694;SDS011;65580;49.446;6.854;2023-07-29T20:13:15;4.03;;;1.60;;
8694;SDS011;65580;49.446;6.854;2023-07-29T20:17:17;3.28;;;1.60;;
8694;SDS011;65580;49.446;6.854;2023-07-29T20:21:22;5.97;;;2.20;;
8694;SDS011;65580;49.446;6.854;2023-07-29T20:25:25;4.18;;;1.70;;
8694;SDS011;65580;49.446;6.854;2023-07-29T20:29:28;3.58;;;2.35;;
8694;SDS011;65580;49.446;6.854;2023-07-29T20:33:31;4.80;;;2.58;;
8694;SDS011;65580;49.446;6.854;2023-07-29T20:37:35;5.10;;;2.42;;
8694;SDS011;65580;49.446;6.854;2023-07-29T20:41:38;5.50;;;2.10;;
8694;SDS011;65580;49.446;6.854;2023-07-29T20:49:44;5.65;;;2.38;;
8694;SDS011;65580;49.446;6.854;2023-07-29T20:53:48;4.30;;;2.25;;
8694;SDS011;65580;49.446;6.854;2023-07-29T20:57:51;3.85;;;2.15;;
8694;SDS011;65580;49.446;6.854;2023-07-29T21:01:54;8.77;;;2.65;;
8694;SDS011;65580;49.446;6.854;2023-07-29T21:10:01;8.43;;;2.55;;
8694;SDS011;65580;49.446;6.854;2023-07-29T21:14:04;4.82;;;2.05;;
8694;SDS011;65580;49.446;6.854;2023-07-29T21:18:07;7.28;;;2.08;;
8694;SDS011;65580;49.446;6.854;2023-07-29T21:22:10;6.13;;;2.20;;
8694;SDS011;65580;49.446;6.854;2023-07-29T21:26:14;5.88;;;2.22;;
8694;SDS011;65580;49.446;6.854;2023-07-29T21:30:17;4.22;;;2.15;;
8694;SDS011;65580;49.446;6.854;2023-07-29T21:34:20;3.20;;;1.95;;
8694;SDS011;65580;49.446;6.854;2023-07-29T21:38:22;4.90;;;2.25;;
8694;SDS011;65580;49.446;6.854;2023-07-29T21:42:32;2.63;;;1.88;;
8694;SDS011;65580;49.446;6.854;2023-07-29T21:46:34;7.15;;;2.72;;
8694;SDS011;65580;49.446;6.854;2023-07-29T21:50:37;2.90;;;2.00;;
8694;SDS011;65580;49.446;6.854;2023-07-29T21:54:40;5.88;;;2.50;;
8694;SDS011;65580;49.446;6.854;2023-07-29T21:58:44;2.42;;;1.92;;
8694;SDS011;65580;49.446;6.854;2023-07-29T22:02:47;7.90;;;2.78;;
8694;SDS011;65580;49.446;6.854;2023-07-29T22:06:50;3.75;;;2.22;;
8694;SDS011;65580;49.446;6.854;2023-07-29T22:10:52;7.32;;;2.55;;
8694;SDS011;65580;49.446;6.854;2023-07-29T22:14:57;3.83;;;2.10;;
8694;SDS011;65580;49.446;6.854;2023-07-29T22:18:59;3.03;;;1.92;;
8694;SDS011;65580;49.446;6.854;2023-07-29T22:23:02;5.35;;;2.10;;
8694;SDS011;65580;49.446;6.854;2023-07-29T22:27:05;3.97;;;1.80;;
8694;SDS011;65580;49.446;6.854;2023-07-29T22:31:10;1.75;;;1.20;;
8694;SDS011;65580;49.446;6.854;2023-07-29T22:35:14;2.00;;;0.98;;
8694;SDS011;65580;49.446;6.854;2023-07-29T22:43:19;3.30;;;1.40;;
8694;SDS011;65580;49.446;6.854;2023-07-29T22:47:23;3.78;;;1.40;;
8694;SDS011;65580;49.446;6.854;2023-07-29T22:51:26;4.82;;;1.38;;
8694;SDS011;65580;49.446;6.854;2023-07-29T22:55:29;5.70;;;1.85;;
8694;SDS011;65580;49.446;6.854;2023-07-29T22:59:32;3.25;;;1.42;;
8694;SDS011;65580;49.446;6.854;2023-07-29T23:03:36;4.85;;;1.40;;
8694;SDS011;65580;49.446;6.854;2023-07-29T23:07:39;4.95;;;1.60;;
8694;SDS011;65580;49.446;6.854;2023-07-29T23:11:42;3.50;;;1.27;;
8694;SDS011;65580;49.446;6.854;2023-07-29T23:15:45;3.40;;;1.30;;
8694;SDS011;65580;49.446;6.854;2023-07-29T23:19:49;4.65;;;1.55;;
8694;SDS011;65580;49.446;6.854;2023-07-29T23:23:51;6.00;;;2.30;;
8694;SDS011;65580;49.446;6.854;2023-07-29T23:27:54;1.77;;;1.30;;
8694;SDS011;65580;49.446;6.854;2023-07-29T23:31:57;2.67;;;1.13;;
8694;SDS011;65580;49.446;6.854;2023-07-29T23:36:02;3.63;;;1.20;;
8694;SDS011;65580;49.446;6.854;2023-07-29T23:40:05;6.25;;;2.13;;
8694;SDS011;65580;49.446;6.854;2023-07-29T23:44:10;8.48;;;2.75;;
8694;SDS011;65580;49.446;6.854;2023-07-29T23:48:12;2.47;;;1.55;;
8694;SDS011;65580;49.446;6.854;2023-07-29T23:52:16;4.15;;;1.80;;
8694;SDS011;65580;49.446;6.854;2023-07-29T23:56:19;3.40;;;1.55;;
